Time;durP1;ratioP1;P1;durP2;ratioP2;P2;SDS_P1;SDS_P2;PMS_P1;PMS_P2;Temp;Humidity;BMP_temperature;BMP_pressure;BME280_temperature;BME280_humidity;BME280_pressure;Samples;Min_cycle;Max_cycle;Signal;HPM_P1;HPM_P2
2022/08/31 00:04:26;;;;;;;21.37;9.37;;;;;;;38.92;38.09;101038.03;5075967;28;20478;-71
2022/08/31 00:06:52;;;;;;;36.73;12.50;;;;;;;39.10;38.04;101039.72;5057948;28;20523;-71
2022/08/31 00:09:18;;;;;;;22.07;11.23;;;;;;;38.57;38.53;101034.22;5057885;28;20448;-72
2022/08/31 00:11:44;;;;;;;30.77;11.70;;;;;;;38.66;38.46;101037.78;5057962;28;20456;-71
2022/08/31 00:14:11;;;;;;;27.43;11.13;;;;;;;39.09;38.04;101035.41;5057733;28;20944;-72
2022/08/31 00:16:39;;;;;;;33.10;12.37;;;;;;;39.27;37.29;101028.19;5057791;28;20976;-74
2022/08/31 00:19:06;;;;;;;30.63;10.70;;;;;;;39.38;37.30;101034.94;5057652;28;20876;-73
2022/08/31 00:21:32;;;;;;;32.60;11.70;;;;;;;39.20;37.55;101023.19;5057632;28;20414;-71
2022/08/31 00:23:58;;;;;;;26.10;11.60;;;;;;;39.41;37.56;101028.91;5057629;28;20416;-72
2022/08/31 00:26:25;;;;;;;42.40;15.30;;;;;;;39.55;37.39;101017.16;5075894;28;20407;-69
2022/08/31 00:28:52;;;;;;;32.40;10.57;;;;;;;39.47;37.05;101016.81;5057527;28;20465;-69
2022/08/31 00:31:18;;;;;;;26.60;10.40;;;;;;;39.67;36.72;101018.19;5057482;28;20505;-70
2022/08/31 00:33:45;;;;;;;16.40;8.43;;;;;;;38.90;37.96;101019.31;5057547;28;20441;-69
2022/08/31 00:36:13;;;;;;;26.23;11.73;;;;;;;39.19;37.78;101009.97;5057420;28;20516;-70
2022/08/31 00:38:40;;;;;;;22.13;10.40;;;;;;;38.91;38.10;101007.34;5075257;28;20469;-72
2022/08/31 00:41:09;;;;;;;29.60;10.47;;;;;;;39.20;37.90;101006.94;5057257;28;20416;-72
2022/08/31 00:43:42;;;;;;;19.83;11.80;;;;;;;39.39;37.34;100995.03;5057342;28;20413;-72
2022/08/31 00:46:12;;;;;;;26.30;10.17;;;;;;;39.53;36.96;100993.00;5057249;28;20438;-73
2022/08/31 00:48:45;;;;;;;27.57;10.90;;;;;;;39.76;36.73;100989.13;5057159;28;20476;-73
2022/08/31 00:51:11;;;;;;;26.10;10.60;;;;;;;39.88;36.55;100990.44;5057230;28;20479;-73
2022/08/31 00:53:38;;;;;;;25.63;8.97;;;;;;;39.71;36.77;100996.59;5075335;28;20420;-72
2022/08/31 00:56:04;;;;;;;22.70;12.20;;;;;;;39.74;36.58;100994.06;5057055;28;20498;-71
2022/08/31 00:58:30;;;;;;;18.83;7.57;;;;;;;39.68;36.83;100984.47;5057275;28;20990;-72
2022/08/31 01:00:58;;;;;;;20.67;8.53;;;;;;;39.75;36.70;100989.44;5056605;28;20433;-72
2022/08/31 01:03:25;;;;;;;21.63;8.83;;;;;;;39.97;36.11;100983.91;5056970;28;20428;-72
2022/08/31 01:05:51;;;;;;;28.73;9.33;;;;;;;39.70;36.72;100993.09;5056879;28;20447;-72
2022/08/31 01:08:18;;;;;;;29.77;9.90;;;;;;;39.40;37.12;100983.84;5056787;28;20459;-72
2022/08/31 01:10:45;;;;;;;17.77;8.90;;;;;;;39.55;37.17;100979.94;5056763;28;20501;-72
2022/08/31 01:13:13;;;;;;;26.43;9.60;;;;;;;39.40;37.17;100972.19;5056830;28;20429;-72
2022/08/31 01:15:45;;;;;;;27.50;11.50;;;;;;;39.56;36.94;100970.66;5056769;28;20791;-72
2022/08/31 01:18:11;;;;;;;20.77;8.37;;;;;;;39.55;37.18;100971.78;5056942;28;21024;-72
2022/08/31 01:20:55;;;;;;;21.10;8.53;;;;;;;39.37;36.99;100970.94;5056555;28;20414;-72
2022/08/31 01:23:26;;;;;;;20.00;8.43;;;;;;;38.70;38.38;100979.13;5056533;28;20448;-72
2022/08/31 01:25:56;;;;;;;18.57;8.57;;;;;;;38.76;37.96;100963.56;5056501;28;20417;-72
2022/08/31 01:28:22;;;;;;;34.50;10.37;;;;;;;38.59;38.57;100958.78;5056402;28;21018;-71
2022/08/31 01:31:23;;;;;;;21.03;10.33;;;;;;;38.85;38.11;100964.41;5056435;28;20449;-71
2022/08/31 01:33:49;;;;;;;35.40;11.37;;;;;;;38.64;38.87;100962.19;5056137;28;20445;-72
2022/08/31 01:36:16;;;;;;;31.43;10.70;;;;;;;38.78;38.61;100956.72;5056139;28;20830;-73
2022/08/31 01:38:43;;;;;;;39.63;10.10;;;;;;;38.88;38.57;100959.19;5052824;28;20891;-74
2022/08/31 01:41:09;;;;;;;18.00;9.13;;;;;;;39.25;37.81;100954.44;5054558;28;20395;-72
2022/08/31 01:43:36;;;;;;;19.73;9.67;;;;;;;39.53;37.17;100943.34;5052799;28;20407;-71
2022/08/31 01:46:08;;;;;;;27.07;9.20;;;;;;;39.64;36.66;100942.75;5052890;28;20918;-72
2022/08/31 01:48:35;;;;;;;23.57;11.53;;;;;;;39.41;36.53;100939.34;5052657;28;20490;-71
2022/08/31 01:51:03;;;;;;;21.20;9.77;;;;;;;39.48;36.59;100936.16;5052739;28;20923;-72
2022/08/31 01:53:29;;;;;;;30.80;11.07;;;;;;;39.27;36.89;100938.63;5052631;28;20407;-72
2022/08/31 01:55:55;;;;;;;21.83;9.30;;;;;;;39.47;36.73;100935.38;5052724;28;20422;-71
2022/08/31 01:58:21;;;;;;;30.90;12.00;;;;;;;39.78;36.44;100929.06;5052494;28;20426;-72
2022/08/31 02:00:47;;;;;;;20.03;9.17;;;;;;;39.65;36.50;100947.06;5052464;28;20941;-72
2022/08/31 02:03:13;;;;;;;25.03;10.97;;;;;;;39.52;36.67;100934.41;5054188;28;20401;-72
2022/08/31 02:05:40;;;;;;;20.33;9.57;;;;;;;39.74;36.08;100936.25;5052482;28;20414;-72
2022/08/31 02:08:09;;;;;;;27.90;11.77;;;;;;;39.79;35.83;100935.31;5052276;28;20454;-71
2022/08/31 02:10:36;;;;;;;38.33;12.97;;;;;;;39.75;35.57;100929.69;5054014;28;20391;-72
2022/08/31 02:13:03;;;;;;;21.50;8.60;;;;;;;39.96;35.79;100940.72;5051969;28;20402;-71
2022/08/31 02:15:31;;;;;;;27.37;12.67;;;;;;;39.59;35.90;100937.44;5052254;28;20406;-72
2022/08/31 02:17:58;;;;;;;14.43;8.40;;;;;;;39.63;35.95;100930.31;5053798;28;20422;-72
2022/08/31 02:20:24;;;;;;;24.23;11.53;;;;;;;39.74;36.08;100928.91;5053772;28;20769;-72
2022/08/31 02:22:50;;;;;;;23.70;9.77;;;;;;;39.43;36.91;100926.25;5052084;28;20422;-74
2022/08/31 02:25:17;;;;;;;19.70;8.00;;;;;;;39.86;36.03;100931.00;5052078;28;20496;-73
2022/08/31 02:27:43;;;;;;;21.13;10.00;;;;;;;39.87;36.13;100929.88;5051900;28;20472;-73
2022/08/31 02:30:13;;;;;;;28.30;11.83;;;;;;;39.97;36.10;100937.72;5051894;28;20439;-74
2022/08/31 02:32:39;;;;;;;30.13;9.10;;;;;;;39.94;35.48;100942.97;5051926;28;20421;-73
2022/08/31 02:35:05;;;;;;;30.03;12.73;;;;;;;39.96;36.15;100933.41;5051745;28;20443;-73
2022/08/31 02:37:31;;;;;;;30.37;9.23;;;;;;;40.03;35.87;100932.94;5058689;28;20529;-72
2022/08/31 02:39:57;;;;;;;30.07;9.60;;;;;;;40.03;36.03;100925.59;5055047;28;20460;-72
2022/08/31 02:42:23;;;;;;;25.73;9.23;;;;;;;39.93;35.93;100934.03;5055062;28;20442;-71
2022/08/31 02:44:49;;;;;;;20.93;9.17;;;;;;;39.99;35.49;100934.69;5055039;28;21012;-71
2022/08/31 02:47:16;;;;;;;28.83;10.40;;;;;;;39.84;35.72;100935.97;5054829;28;20489;-72
2022/08/31 02:49:42;;;;;;;32.63;10.17;;;;;;;38.99;36.83;100935.31;5055021;28;20414;-72
2022/08/31 02:52:08;;;;;;;28.80;12.93;;;;;;;38.65;37.63;100933.97;5054792;28;20825;-73
2022/08/31 02:54:34;;;;;;;22.10;9.30;;;;;;;39.14;37.09;100937.59;5054867;28;20414;-73
2022/08/31 02:57:01;;;;;;;23.17;9.90;;;;;;;39.20;37.13;100930.94;5054776;28;20432;-74
2022/08/31 02:59:27;;;;;;;26.00;11.27;;;;;;;39.03;37.10;100938.19;5054720;28;20442;-73
2022/08/31 03:01:54;;;;;;;20.20;8.60;;;;;;;39.18;37.27;100938.63;5054663;28;20441;-73
2022/08/31 03:04:20;;;;;;;35.43;11.37;;;;;;;39.20;37.27;100947.22;5073055;28;20443;-73
2022/08/31 03:06:47;;;;;;;27.50;11.20;;;;;;;39.18;37.08;100944.03;5054479;28;20522;-73
2022/08/31 03:09:14;;;;;;;25.37;10.97;;;;;;;39.31;36.86;100938.81;5054688;28;20426;-74
2022/08/31 03:11:40;;;;;;;29.90;12.23;;;;;;;38.88;37.30;100945.63;5054700;28;20483;-73
2022/08/31 03:14:06;;;;;;;23.87;10.17;;;;;;;38.99;37.32;100935.31;5054374;28;20413;-73
2022/08/31 03:16:32;;;;;;;21.13;9.90;;;;;;;39.19;37.20;100932.06;5054804;28;20818;-73
2022/08/31 03:18:58;;;;;;;30.63;9.97;;;;;;;39.44;36.91;100929.75;5054381;28;20448;-74
2022/08/31 03:21:24;;;;;;;29.70;8.43;;;;;;;39.30;37.16;100929.88;5054484;28;20849;-74
2022/08/31 03:23:50;;;;;;;25.60;9.50;;;;;;;39.20;37.42;100932.88;5054882;28;20981;-74
2022/08/31 03:26:16;;;;;;;18.60;10.90;;;;;;;39.05;37.49;100933.25;5054371;28;20430;-74
2022/08/31 03:28:43;;;;;;;25.77;11.63;;;;;;;39.01;37.38;100935.78;5054473;28;20470;-73
2022/08/31 03:31:09;;;;;;;25.73;11.07;;;;;;;39.22;36.95;100934.13;5054319;28;20846;-73
2022/08/31 03:33:36;;;;;;;15.60;7.27;;;;;;;39.18;36.75;100926.97;5054386;28;20475;-74
2022/08/31 03:36:04;;;;;;;26.83;10.20;;;;;;;38.89;37.43;100932.84;5054351;28;20500;-73
2022/08/31 03:38:31;;;;;;;24.47;11.07;;;;;;;38.82;37.18;100919.75;5054069;28;20573;-73
2022/08/31 03:40:57;;;;;;;33.67;13.03;;;;;;;39.01;37.22;100927.66;5054406;28;20418;-73
2022/08/31 03:43:23;;;;;;;18.33;7.77;;;;;;;38.75;37.09;100932.94;5054242;28;20418;-73
2022/08/31 03:45:49;;;;;;;29.87;11.60;;;;;;;39.08;36.90;100927.19;5054331;28;21003;-73
2022/08/31 03:48:16;;;;;;;32.83;10.33;;;;;;;38.91;37.43;100942.25;5054240;28;20460;-74
2022/08/31 03:50:42;;;;;;;31.73;11.40;;;;;;;38.99;37.35;100945.38;5054245;28;20457;-73
2022/08/31 03:53:09;;;;;;;28.30;10.87;;;;;;;38.64;37.76;100945.91;5054167;28;20444;-73
2022/08/31 03:55:38;;;;;;;18.30;7.47;;;;;;;38.95;37.01;100950.59;5054098;28;20799;-73
2022/08/31 03:58:05;;;;;;;22.37;11.60;;;;;;;38.68;37.62;100949.63;5072205;28;20402;-73
2022/08/31 04:00:32;;;;;;;25.37;11.87;;;;;;;39.12;37.49;100950.69;5054179;28;20401;-73
2022/08/31 04:03:00;;;;;;;19.87;10.70;;;;;;;39.40;37.10;100958.63;5054184;28;20410;-73
2022/08/31 04:05:27;;;;;;;13.97;8.40;;;;;;;39.70;36.37;100955.06;5072502;28;20906;-72
2022/08/31 04:07:54;;;;;;;22.47;9.40;;;;;;;39.73;36.63;100967.25;5053946;28;21119;-72
2022/08/31 04:10:21;;;;;;;33.07;13.20;;;;;;;39.31;37.11;100964.03;5054077;28;20432;-72
2022/08/31 04:12:49;;;;;;;23.63;9.30;;;;;;;39.11;36.14;100962.66;5053931;28;20413;-72
2022/08/31 04:15:15;;;;;;;20.63;9.83;;;;;;;39.03;36.19;100965.31;5053993;28;20826;-73
2022/08/31 04:17:44;;;;;;;26.47;10.47;;;;;;;38.80;37.17;100961.84;5054016;28;20790;-73
2022/08/31 04:20:10;;;;;;;20.00;10.60;;;;;;;38.82;36.96;100973.19;5053917;28;20954;-73
2022/08/31 04:22:36;;;;;;;24.93;10.17;;;;;;;38.72;37.17;100962.56;5053859;28;20417;-73
2022/08/31 04:25:02;;;;;;;19.13;10.13;;;;;;;38.57;37.33;100975.38;5072178;28;20408;-71
2022/08/31 04:27:28;;;;;;;26.00;9.90;;;;;;;38.55;37.60;100974.88;5053696;28;20458;-71
2022/08/31 04:29:54;;;;;;;28.73;8.67;;;;;;;38.41;37.95;100971.41;5054504;28;20418;-71
2022/08/31 04:32:20;;;;;;;24.63;14.03;;;;;;;38.40;37.67;100969.81;5071997;28;20437;-72
2022/08/31 04:34:46;;;;;;;35.63;10.70;;;;;;;38.71;37.27;100967.16;5054561;28;20421;-71
2022/08/31 04:37:13;;;;;;;23.10;9.57;;;;;;;38.69;37.50;100963.97;5075927;28;20455;-71
2022/08/31 04:39:43;;;;;;;32.40;11.23;;;;;;;38.50;37.69;100964.16;5057708;28;20444;-73
2022/08/31 04:42:10;;;;;;;13.63;7.93;;;;;;;38.41;37.97;100974.13;5057414;28;20842;-73
2022/08/31 04:44:37;;;;;;;22.87;10.43;;;;;;;38.53;37.80;100976.28;5057269;28;20483;-71
2022/08/31 04:47:03;;;;;;;23.63;8.23;;;;;;;38.28;38.28;100978.47;5057165;28;21029;-73
2022/08/31 04:49:29;;;;;;;24.03;10.60;;;;;;;38.32;38.59;100975.97;5057120;28;20422;-73
2022/08/31 04:51:55;;;;;;;32.10;10.77;;;;;;;38.56;38.29;100983.81;5057082;28;20438;-72
2022/08/31 04:54:21;;;;;;;18.03;8.80;;;;;;;38.27;38.58;100989.63;5057283;28;20436;-71
2022/08/31 04:56:47;;;;;;;24.10;9.83;;;;;;;38.04;39.11;101002.28;5056962;28;20467;-72
2022/08/31 04:59:16;;;;;;;29.47;10.73;;;;;;;38.24;38.48;101001.03;5056870;28;20522;-72
2022/08/31 05:01:44;;;;;;;28.47;9.63;;;;;;;38.34;38.56;100995.44;5057007;28;20422;-71
2022/08/31 05:04:12;;;;;;;29.30;9.13;;;;;;;38.55;38.21;101004.72;5057032;28;20414;-71
2022/08/31 05:06:42;;;;;;;26.00;8.27;;;;;;;38.65;37.76;100999.03;5056771;28;20913;-71
2022/08/31 05:09:12;;;;;;;23.90;10.00;;;;;;;38.61;38.18;101003.47;5056753;28;20464;-71
2022/08/31 05:11:40;;;;;;;19.20;8.50;;;;;;;38.74;37.94;101009.19;5056734;28;20422;-72
2022/08/31 05:14:07;;;;;;;31.10;9.30;;;;;;;38.86;37.66;101018.34;5056609;28;20414;-72
2022/08/31 05:16:36;;;;;;;30.90;11.30;;;;;;;38.65;37.77;101022.63;5075232;28;20488;-71
2022/08/31 05:19:02;;;;;;;19.60;8.87;;;;;;;38.47;38.03;101029.81;5056718;28;20946;-72
2022/08/31 05:21:33;;;;;;;29.67;10.43;;;;;;;38.35;38.37;101040.38;5056454;28;20482;-73
2022/08/31 05:24:08;;;;;;;23.20;8.70;;;;;;;38.55;37.98;101042.66;5056545;28;20888;-73
2022/08/31 05:26:39;;;;;;;18.73;10.23;;;;;;;38.76;37.72;101050.34;5056473;28;20413;-73
2022/08/31 05:29:07;;;;;;;22.63;11.17;;;;;;;38.71;38.07;101051.22;5056349;28;20466;-73
2022/08/31 05:31:36;;;;;;;28.37;12.60;;;;;;;39.02;37.53;101055.94;5056294;28;20508;-73
2022/08/31 05:34:04;;;;;;;26.70;11.53;;;;;;;39.12;37.28;101056.50;5074471;28;20429;-72
2022/08/31 05:36:30;;;;;;;19.30;9.67;;;;;;;39.08;37.14;101069.06;5055954;28;20418;-71
2022/08/31 05:38:57;;;;;;;21.10;9.57;;;;;;;39.09;37.45;101070.66;5074140;28;20449;-71
2022/08/31 05:41:23;;;;;;;23.43;9.77;;;;;;;38.54;38.32;101070.84;5056140;28;20551;-72
2022/08/31 05:43:49;;;;;;;25.47;10.37;;;;;;;38.79;38.21;101072.19;5056231;28;20418;-71
2022/08/31 05:46:16;;;;;;;19.40;8.00;;;;;;;39.07;38.07;101082.94;5050052;28;20419;-71
2022/08/31 05:48:43;;;;;;;13.47;8.77;;;;;;;38.09;39.56;101067.19;5065311;28;20445;-71
2022/08/31 05:51:13;;;;;;;16.40;9.60;;;;;;;38.16;39.51;101070.28;5056099;28;20413;-72
2022/08/31 05:53:40;;;;;;;21.37;8.63;;;;;;;38.59;38.86;101081.56;5055888;28;20805;-73
2022/08/31 05:56:13;;;;;;;30.57;12.03;;;;;;;38.72;38.95;101092.72;5055914;28;21051;-73
2022/08/31 05:58:40;;;;;;;34.47;13.33;;;;;;;38.11;39.14;101089.34;5055797;28;20417;-71
2022/08/31 06:01:29;;;;;;;21.47;11.57;;;;;;;38.50;38.45;101080.72;5039386;28;20567;-72
2022/08/31 06:03:55;;;;;;;27.60;11.50;;;;;;;38.58;38.59;101087.31;5055599;28;20518;-72
2022/08/31 06:06:22;;;;;;;27.03;11.60;;;;;;;38.73;38.02;101097.03;5055784;28;20418;-73
2022/08/31 06:08:51;;;;;;;33.50;12.37;;;;;;;38.52;38.29;101099.38;5070798;28;20449;-80
2022/08/31 06:11:20;;;;;;;19.13;9.63;;;;;;;38.60;38.06;101102.16;5044840;28;20551;-78
2022/08/31 06:13:51;;;;;;;22.30;9.03;;;;;;;38.38;38.54;101105.63;5048760;28;20505;-78
2022/08/31 06:16:18;;;;;;;28.90;8.20;;;;;;;38.46;38.11;101116.84;5044436;28;20468;-74
2022/08/31 06:18:49;;;;;;;16.83;9.20;;;;;;;38.57;38.08;101108.19;5045125;28;20410;-77
2022/08/31 06:21:19;;;;;;;27.63;9.43;;;;;;;38.81;37.68;101110.69;5045031;28;20426;-73
2022/08/31 06:23:48;;;;;;;27.40;10.70;;;;;;;38.80;37.77;101116.41;5045733;28;20956;-73
2022/08/31 06:26:17;;;;;;;32.97;11.40;;;;;;;38.94;37.56;101112.53;5040964;28;20411;-73
2022/08/31 06:28:45;;;;;;;27.17;11.37;;;;;;;38.93;37.91;101126.41;5043747;28;20468;-72
2022/08/31 06:31:29;;;;;;;26.83;10.70;;;;;;;39.11;37.53;101125.44;5045124;28;20414;-73
2022/08/31 06:33:57;;;;;;;22.53;10.30;;;;;;;39.03;37.77;101138.91;5047118;28;20421;-73
2022/08/31 06:36:26;;;;;;;41.87;14.33;;;;;;;39.15;37.72;101133.75;5073441;28;20444;-72
2022/08/31 06:38:54;;;;;;;37.40;14.70;;;;;;;39.31;37.40;101136.94;5051458;28;20459;-73
2022/08/31 06:41:29;;;;;;;24.67;9.50;;;;;;;38.87;38.08;101149.34;5053130;28;20760;-71
2022/08/31 06:43:58;;;;;;;25.97;10.80;;;;;;;39.16;37.80;101157.06;5029980;28;20407;-73
2022/08/31 06:46:24;;;;;;;26.90;10.23;;;;;;;39.29;38.00;101150.81;5029891;28;20466;-73
2022/08/31 06:48:55;;;;;;;29.10;11.60;;;;;;;39.01;38.09;101149.28;5029667;28;20470;-72
2022/08/31 06:51:22;;;;;;;35.33;11.17;;;;;;;39.03;38.06;101161.41;5032408;28;20396;-71
2022/08/31 06:53:49;;;;;;;19.80;10.30;;;;;;;38.70;38.54;101156.16;5030195;28;20429;-74
2022/08/31 06:56:18;;;;;;;28.10;10.37;;;;;;;39.01;38.01;101160.94;5029662;28;20445;-74
2022/08/31 06:58:45;;;;;;;22.63;8.73;;;;;;;39.23;37.68;101158.28;5029808;28;20985;-74
2022/08/31 07:01:15;;;;;;;17.80;9.03;;;;;;;38.67;38.57;101155.94;5031473;28;20430;-75
2022/08/31 07:03:42;;;;;;;29.80;11.77;;;;;;;38.89;38.13;101166.88;5015291;28;20424;-74
2022/08/31 07:06:21;;;;;;;26.57;10.50;;;;;;;39.04;38.08;101173.91;5034020;28;20427;-72
2022/08/31 07:08:53;;;;;;;21.83;10.07;;;;;;;38.78;38.47;101168.22;5042121;28;20442;-72
2022/08/31 07:11:26;;;;;;;32.20;15.27;;;;;;;39.04;38.21;101181.22;5040942;28;20507;-72
2022/08/31 07:13:54;;;;;;;25.80;12.50;;;;;;;38.83;38.27;101167.31;5064836;28;20417;-71
2022/08/31 07:16:21;;;;;;;19.50;10.00;;;;;;;39.11;37.91;101181.59;5023704;28;20450;-72
2022/08/31 07:18:49;;;;;;;17.63;8.27;;;;;;;39.09;37.76;101179.19;5039719;28;20410;-72
2022/08/31 07:21:24;;;;;;;20.77;8.20;;;;;;;39.07;37.98;101186.03;5042337;28;20411;-71
2022/08/31 07:23:51;;;;;;;17.90;9.53;;;;;;;39.27;37.63;101190.22;5025513;28;20425;-72
2022/08/31 07:26:27;;;;;;;17.87;9.87;;;;;;;38.81;38.08;101188.53;5024121;28;20451;-71
2022/08/31 07:28:56;;;;;;;25.97;8.73;;;;;;;39.06;38.15;101189.88;5041185;28;20485;-71
2022/08/31 07:31:25;;;;;;;17.57;10.40;;;;;;;39.08;38.21;101195.78;5015837;28;20423;-72
2022/08/31 07:33:54;;;;;;;22.83;11.60;;;;;;;39.25;37.80;101197.88;5033865;28;20419;-73
2022/08/31 07:36:21;;;;;;;22.17;10.63;;;;;;;39.15;37.86;101194.22;5032652;28;20446;-71
2022/08/31 07:44:18;;;;;;;30.07;13.53;;;;;;;39.25;37.85;101211.44;5032382;28;21094;-71
2022/08/31 07:46:46;;;;;;;28.40;9.33;;;;;;;39.27;37.32;101207.28;5031010;28;20779;-72
2022/08/31 07:49:14;;;;;;;29.23;11.30;;;;;;;39.03;38.06;101207.53;5030212;28;21025;-73
2022/08/31 07:51:49;;;;;;;14.70;8.40;;;;;;;39.29;37.69;101212.41;5031656;28;20957;-71
2022/08/31 07:54:21;;;;;;;29.40;11.33;;;;;;;39.45;37.42;101216.38;5030261;28;20442;-71
2022/08/31 07:56:52;;;;;;;33.97;14.20;;;;;;;39.54;37.19;101214.53;5031266;28;20424;-85
2022/08/31 07:59:21;;;;;;;25.00;9.20;;;;;;;39.36;37.03;101216.31;5050292;28;20411;-71
2022/08/31 08:01:48;;;;;;;22.73;11.30;;;;;;;39.39;37.36;101220.31;5034205;28;20443;-73
2022/08/31 08:04:23;;;;;;;21.83;7.53;;;;;;;39.16;37.22;101214.84;5050756;28;20415;-72
2022/08/31 08:06:51;;;;;;;20.27;9.37;;;;;;;39.49;36.50;101226.31;5046823;28;20411;-72
2022/08/31 08:09:17;;;;;;;19.20;7.07;;;;;;;39.58;36.49;101225.56;5030582;28;20463;-74
2022/08/31 08:11:45;;;;;;;22.43;9.00;;;;;;;39.39;36.53;101225.75;5034576;28;20419;-73
2022/08/31 08:14:11;;;;;;;22.10;7.20;;;;;;;39.46;36.63;101236.97;5034423;28;20530;-74
2022/08/31 08:16:37;;;;;;;16.23;6.93;;;;;;;39.75;36.20;101225.72;5034393;28;20875;-70
2022/08/31 08:19:04;;;;;;;17.23;7.33;;;;;;;39.91;35.74;101226.13;5035681;28;20419;-71
2022/08/31 08:21:30;;;;;;;15.73;9.03;;;;;;;39.92;35.92;101223.09;5037103;28;20427;-72
2022/08/31 08:23:57;;;;;;;17.03;8.80;;;;;;;40.20;35.47;101220.22;5052929;28;20418;-70
2022/08/31 08:26:23;;;;;;;18.67;7.80;;;;;;;40.18;35.91;101222.44;5053557;28;20418;-73
2022/08/31 08:28:49;;;;;;;20.10;8.57;;;;;;;39.83;35.70;101221.44;5048928;28;20489;-70
2022/08/31 08:31:24;;;;;;;12.03;6.93;;;;;;;40.26;35.50;101222.47;5035057;28;20414;-70
2022/08/31 08:33:51;;;;;;;23.63;8.70;;;;;;;39.85;36.21;101222.75;5033815;28;20426;-70
2022/08/31 08:36:21;;;;;;;27.33;12.20;;;;;;;39.90;35.98;101227.22;5035964;28;20414;-71
2022/08/31 08:38:50;;;;;;;21.67;9.83;;;;;;;39.85;36.20;101227.38;5033468;28;20480;-73
2022/08/31 08:41:26;;;;;;;21.57;9.90;;;;;;;39.97;36.22;101239.28;5033441;28;20423;-70
2022/08/31 08:43:57;;;;;;;22.00;8.70;;;;;;;39.76;36.07;101233.53;5033578;28;20537;-70
2022/08/31 08:46:42;;;;;;;22.37;8.80;;;;;;;39.67;35.76;101235.41;5033324;28;20408;-74
2022/08/31 08:49:23;;;;;;;22.93;7.90;;;;;;;39.89;35.60;101212.03;5033960;28;20471;-72
2022/08/31 08:51:54;;;;;;;15.70;6.13;;;;;;;40.02;35.86;101222.84;5045928;28;20433;-71
2022/08/31 08:54:33;;;;;;;26.80;10.23;;;;;;;40.05;36.30;101218.72;5043141;28;20426;-72
2022/08/31 08:57:06;;;;;;;16.17;8.10;;;;;;;40.50;35.45;101219.38;5041102;28;20457;-70
2022/08/31 08:59:32;;;;;;;17.23;8.90;;;;;;;40.14;35.77;101226.88;5054320;28;20442;-70
2022/08/31 09:02:03;;;;;;;25.80;9.00;;;;;;;39.83;36.00;101224.94;5051157;28;20406;-72
2022/08/31 09:04:44;;;;;;;30.10;11.63;;;;;;;39.88;36.30;101224.03;5053018;28;20426;-71
2022/08/31 09:07:48;;;;;;;22.70;8.97;;;;;;;40.18;35.81;101214.28;5053736;28;20525;-72
2022/08/31 09:10:41;;;;;;;21.63;10.13;;;;;;;40.45;35.32;101213.25;5027559;28;20481;-71
2022/08/31 09:13:36;;;;;;;16.73;7.97;;;;;;;40.62;35.12;101220.69;5034189;28;20904;-73
2022/08/31 09:16:03;;;;;;;24.53;8.73;;;;;;;40.29;35.27;101221.84;5020275;28;20446;-69
2022/08/31 09:18:42;;;;;;;17.87;8.47;;;;;;;40.29;35.66;101221.84;5032998;28;20416;-72
2022/08/31 09:21:27;;;;;;;22.63;7.87;;;;;;;40.59;35.37;101219.44;5052263;28;20996;-71
2022/08/31 09:24:08;;;;;;;20.67;8.40;;;;;;;40.79;35.08;101226.19;5052644;28;20414;-71
2022/08/31 09:27:16;;;;;;;20.40;10.07;;;;;;;40.46;35.29;101220.31;5051195;28;20966;-72
2022/08/31 09:29:43;;;;;;;30.77;14.37;;;;;;;39.87;35.71;101222.44;5053092;28;20453;-73
2022/08/31 09:32:16;;;;;;;18.77;10.23;;;;;;;40.27;35.08;101228.72;5051937;28;20945;-72
2022/08/31 09:35:00;;;;;;;16.83;9.90;;;;;;;39.87;35.64;101230.56;5051992;28;20422;-71
2022/08/31 09:37:56;;;;;;;27.70;8.40;;;;;;;39.58;36.20;101234.50;5051232;28;20482;-71
2022/08/31 09:40:42;;;;;;;22.17;10.00;;;;;;;39.88;35.75;101230.25;5052671;28;20509;-73
2022/08/31 09:43:21;;;;;;;29.33;9.83;;;;;;;39.83;36.15;101237.72;5053638;28;20399;-71
2022/08/31 09:46:03;;;;;;;26.10;10.43;;;;;;;40.37;34.81;101233.06;5052179;28;20501;-71
2022/08/31 09:48:45;;;;;;;16.53;7.93;;;;;;;40.31;35.38;101228.88;5052190;28;20451;-71
2022/08/31 09:51:26;;;;;;;15.37;8.80;;;;;;;40.35;35.17;101232.59;5052151;28;20446;-72
2022/08/31 09:56:54;;;;;;;33.57;8.77;;;;;;;40.27;35.17;101234.16;5053277;28;21048;-71
2022/08/31 09:59:40;;;;;;;26.30;12.17;;;;;;;40.53;34.86;101235.09;5051911;28;20573;-72
2022/08/31 10:02:08;;;;;;;26.63;12.80;;;;;;;40.61;34.70;101249.81;5053201;28;20394;-71
2022/08/31 16:00:35;;;;;;;15.83;8.80;;;;;;;39.57;39.30;101080.06;5163097;27;20320;-73
2022/08/31 16:03:02;;;;;;;20.33;10.30;;;;;;;39.70;38.68;101071.03;5141240;27;20869;-72
2022/08/31 16:05:34;;;;;;;20.33;8.77;;;;;;;39.82;38.20;101067.72;5128046;27;20949;-73
2022/08/31 16:08:01;;;;;;;16.33;9.50;;;;;;;40.31;37.51;101069.31;5136701;27;20458;-73
2022/08/31 16:10:29;;;;;;;24.63;11.57;;;;;;;40.13;37.35;101073.94;5143452;27;20430;-74
2022/08/31 16:12:55;;;;;;;15.77;8.40;;;;;;;40.07;37.51;101066.25;5127473;27;20434;-70
2022/08/31 16:15:21;;;;;;;21.03;8.07;;;;;;;40.21;36.93;101062.28;5133306;27;20442;-72
2022/08/31 16:17:47;;;;;;;25.13;8.50;;;;;;;40.45;36.39;101072.69;5138785;27;20435;-72
2022/08/31 16:20:13;;;;;;;22.43;9.57;;;;;;;40.72;36.22;101081.69;5144914;27;20210;-72
2022/08/31 16:22:41;;;;;;;23.03;10.70;;;;;;;40.84;35.90;101076.41;5144972;27;20422;-72
2022/08/31 16:25:13;;;;;;;13.27;7.20;;;;;;;40.94;35.41;101083.47;5148353;27;20509;-72
2022/08/31 16:27:40;;;;;;;22.50;12.20;;;;;;;41.19;34.66;101082.63;5147448;27;20874;-72
2022/08/31 16:30:11;;;;;;;13.97;7.60;;;;;;;41.16;35.10;101086.00;5148364;27;20427;-71
2022/08/31 16:32:37;;;;;;;28.23;9.13;;;;;;;41.21;35.34;101090.47;5151231;27;20414;-71
2022/08/31 16:35:04;;;;;;;19.70;7.30;;;;;;;41.23;35.13;101090.94;5156914;27;20451;-72
2022/08/31 16:37:31;;;;;;;24.27;8.60;;;;;;;41.05;35.40;101090.16;5129946;27;20415;-73
2022/08/31 16:39:57;;;;;;;24.83;10.63;;;;;;;41.07;34.98;101091.47;5128095;27;20403;-71
2022/08/31 16:42:23;;;;;;;12.57;7.57;;;;;;;41.18;34.99;101088.38;5128014;28;20410;-75
2022/08/31 16:44:49;;;;;;;19.67;7.90;;;;;;;41.13;34.92;101097.53;5137200;27;21071;-72
2022/08/31 16:47:17;;;;;;;21.10;7.70;;;;;;;40.98;35.62;101103.47;5149799;27;20489;-71
2022/08/31 16:49:44;;;;;;;15.80;8.20;;;;;;;41.10;35.30;101097.38;5136931;27;20519;-72
2022/08/31 16:52:25;;;;;;;13.30;7.20;;;;;;;41.13;35.17;101100.25;5127192;28;20510;-71
2022/08/31 16:54:52;;;;;;;25.53;10.80;;;;;;;40.94;35.50;101097.06;5127095;28;20509;-72
2022/08/31 16:57:28;;;;;;;18.00;9.67;;;;;;;40.84;35.66;101090.00;5127606;28;20408;-72
2022/08/31 16:59:56;;;;;;;20.47;11.37;;;;;;;40.89;35.56;101102.66;5120712;27;20579;-72
2022/08/31 17:02:23;;;;;;;24.43;9.50;;;;;;;40.74;35.95;101107.44;5107284;28;20428;-72
2022/08/31 17:04:49;;;;;;;20.17;9.97;;;;;;;40.77;35.69;101114.19;5113571;28;20438;-71
2022/08/31 17:07:17;;;;;;;20.33;8.97;;;;;;;40.87;35.71;101105.69;5098381;28;20431;-72
2022/08/31 17:09:43;;;;;;;27.57;12.43;;;;;;;41.02;35.54;101107.94;5091292;28;20446;-72
2022/08/31 17:12:14;;;;;;;18.83;10.97;;;;;;;40.96;35.41;101106.53;5096011;28;20451;-74
2022/08/31 17:14:50;;;;;;;19.57;7.50;;;;;;;40.89;35.54;101114.34;5092911;28;20405;-72
2022/08/31 17:17:22;;;;;;;17.20;9.53;;;;;;;40.85;35.78;101118.00;5075230;28;20908;-73
2022/08/31 17:19:50;;;;;;;20.27;8.90;;;;;;;40.96;35.41;101116.59;5092841;28;20857;-73
2022/08/31 17:22:19;;;;;;;22.10;10.77;;;;;;;40.96;35.75;101111.97;5092826;28;20417;-74
2022/08/31 17:24:45;;;;;;;28.10;8.87;;;;;;;40.70;36.13;101119.28;5113093;28;20813;-73
2022/08/31 17:27:18;;;;;;;22.43;8.73;;;;;;;40.56;36.52;101105.84;5105684;27;20958;-71
2022/08/31 17:29:47;;;;;;;19.43;9.03;;;;;;;40.54;36.18;101108.09;5100248;28;20547;-73
2022/08/31 17:32:15;;;;;;;16.00;10.13;;;;;;;40.09;36.50;101116.44;5094894;28;20433;-71